createdAt,value
2023-02-11T00:01:36.947Z,63.91
2023-02-11T00:04:05.591Z,63.92
2023-02-11T00:06:34.279Z,63.90
2023-02-11T00:09:02.487Z,63.96
2023-02-11T00:11:30.679Z,64.06
2023-02-11T00:13:59.905Z,64.14
2023-02-11T00:16:28.210Z,63.99
2023-02-11T00:18:55.730Z,64.07
2023-02-11T00:21:24.988Z,63.97
2023-02-11T00:23:53.105Z,64.19
2023-02-11T00:26:23.869Z,64.20
2023-02-11T00:28:53.095Z,64.23
2023-02-11T00:31:21.883Z,64.34
2023-02-11T00:33:49.509Z,64.14
2023-02-11T00:36:23.057Z,64.27
2023-02-11T00:38:52.172Z,64.40
2023-02-11T00:41:20.047Z,64.28
2023-02-11T00:43:47.423Z,64.10
2023-02-11T00:46:14.955Z,64.09
2023-02-11T00:48:42.115Z,64.05
2023-02-11T00:51:10.466Z,64.03
2023-02-11T00:53:37.863Z,63.99
2023-02-11T00:56:05.312Z,64.03
2023-02-11T00:58:32.940Z,64.11
2023-02-11T01:03:47.456Z,64.13
2023-02-11T01:06:15.630Z,64.18
2023-02-11T01:08:42.600Z,64.26
2023-02-11T01:11:16.218Z,64.28
2023-02-11T01:13:43.702Z,64.22
2023-02-11T01:16:12.094Z,64.14
2023-02-11T01:18:40.059Z,64.05
2023-02-11T01:21:08.112Z,64.09
2023-02-11T01:23:35.397Z,64.08
2023-02-11T01:26:03.116Z,64.09
2023-02-11T01:28:31.023Z,64.09
2023-02-11T01:30:58.290Z,64.00
2023-02-11T01:33:25.871Z,64.05
2023-02-11T01:35:53.632Z,64.09
2023-02-11T01:38:26.617Z,64.18
2023-02-11T01:40:56.825Z,64.09
2023-02-11T01:43:25.200Z,64.16
2023-02-11T01:45:53.006Z,64.20
2023-02-11T01:48:33.312Z,64.07
2023-02-11T01:51:17.323Z,64.01
2023-02-11T01:54:06.706Z,63.98
2023-02-11T01:56:56.415Z,64.04
2023-02-11T01:59:33.125Z,64.18
2023-02-11T02:02:06.076Z,64.10
2023-02-11T02:04:39.245Z,64.11
2023-02-11T02:07:12.381Z,64.15
2023-02-11T02:09:44.422Z,64.18
2023-02-11T02:12:11.989Z,64.35
2023-02-11T02:14:40.597Z,64.31
2023-02-11T02:17:14.846Z,64.29
2023-02-11T02:19:57.242Z,64.22
2023-02-11T02:23:07.705Z,64.13
2023-02-11T02:26:13.250Z,64.07
2023-02-11T02:28:46.372Z,64.15
2023-02-11T02:31:19.710Z,64.14
2023-02-11T02:33:52.625Z,64.09
2023-02-11T02:36:49.540Z,64.10
2023-02-11T02:39:26.858Z,64.19
2023-02-11T02:41:56.527Z,64.25
2023-02-11T02:44:24.117Z,64.37
2023-02-11T02:46:51.288Z,64.34
2023-02-11T02:49:18.636Z,64.25
2023-02-11T02:52:03.923Z,64.18
2023-02-11T02:54:34.388Z,64.20
2023-02-11T02:57:38.844Z,64.21
2023-02-11T03:00:21.950Z,64.14
2023-02-11T03:03:24.055Z,64.09
2023-02-11T03:06:04.655Z,64.05
2023-02-11T03:08:46.088Z,64.16
2023-02-11T03:11:17.542Z,64.34
2023-02-11T03:13:46.183Z,64.21
2023-02-11T03:16:23.490Z,64.24
2023-02-11T03:18:57.302Z,64.35
2023-02-11T03:21:25.207Z,64.32
2023-02-11T03:23:59.411Z,64.42
2023-02-11T03:26:31.749Z,64.36
2023-02-11T03:29:10.413Z,64.35
2023-02-11T03:31:48.178Z,64.58
2023-02-11T03:34:30.666Z,64.60
2023-02-11T03:37:05.737Z,64.52
2023-02-11T03:39:41.056Z,64.43
2023-02-11T03:42:11.413Z,64.39
2023-02-11T03:44:43.991Z,64.33
2023-02-11T03:47:14.049Z,64.50
2023-02-11T03:49:43.365Z,64.39
2023-02-11T03:52:49.652Z,64.50
2023-02-11T03:55:41.084Z,64.55
2023-02-11T03:58:09.202Z,64.57
2023-02-11T04:00:41.376Z,64.59
2023-02-11T04:03:10.455Z,64.63
2023-02-11T04:05:38.116Z,64.72
2023-02-11T04:08:05.878Z,64.87
2023-02-11T04:10:33.828Z,65.02
2023-02-11T04:13:00.774Z,64.95
2023-02-11T04:15:28.122Z,64.85
2023-02-11T04:17:55.782Z,64.87
2023-02-11T04:20:22.703Z,64.80
2023-02-11T04:22:50.262Z,64.98
2023-02-11T04:25:17.681Z,65.04
2023-02-11T04:27:45.184Z,64.96
2023-02-11T04:30:13.057Z,64.94
2023-02-11T04:32:40.074Z,64.92
2023-02-11T04:35:07.902Z,64.86
2023-02-11T04:37:35.772Z,64.81
2023-02-11T04:40:02.680Z,64.89
2023-02-11T04:42:30.261Z,64.97
2023-02-11T04:44:57.184Z,64.91
2023-02-11T04:47:24.476Z,64.83
2023-02-11T04:49:51.763Z,64.73
2023-02-11T04:52:19.008Z,64.64
2023-02-11T04:54:46.295Z,64.84
2023-02-11T04:57:13.581Z,64.83
2023-02-11T04:59:40.828Z,64.90
2023-02-11T05:02:08.359Z,64.87
2023-02-11T05:04:35.585Z,64.83
2023-02-11T05:07:03.311Z,64.87
2023-02-11T05:09:30.230Z,64.87
2023-02-11T05:11:57.560Z,64.85
2023-02-11T05:14:24.836Z,64.92
2023-02-11T05:16:51.848Z,64.94
2023-02-11T05:19:19.200Z,64.77
2023-02-11T05:22:01.347Z,64.93
2023-02-11T05:24:29.222Z,64.89
2023-02-11T05:26:56.471Z,64.86
2023-02-11T05:29:24.081Z,64.79
2023-02-11T05:31:51.149Z,64.82
2023-02-11T05:34:18.056Z,64.76
2023-02-11T05:36:45.665Z,64.85
2023-02-11T05:39:12.995Z,64.80
2023-02-11T05:41:40.284Z,64.93
2023-02-11T05:44:07.248Z,64.87
2023-02-11T05:46:34.562Z,64.83
2023-02-11T05:49:02.327Z,64.98
2023-02-11T05:51:29.309Z,64.96
2023-02-11T05:53:57.059Z,64.92
2023-02-11T05:56:24.268Z,64.91
2023-02-11T05:58:51.522Z,65.04
2023-02-11T06:01:19.144Z,64.96
2023-02-11T06:03:46.086Z,65.05
2023-02-11T06:06:13.592Z,64.98
2023-02-11T06:08:40.599Z,64.99
2023-02-11T06:11:07.911Z,65.05
2023-02-11T06:13:36.772Z,65.08
2023-02-11T06:16:03.969Z,64.97
2023-02-11T06:18:31.272Z,64.93
2023-02-11T06:20:58.495Z,64.91
2023-02-11T06:23:28.533Z,64.90
2023-02-11T06:26:02.482Z,64.75
2023-02-11T06:28:31.737Z,64.78
2023-02-11T06:31:06.646Z,64.85
2023-02-11T06:33:35.457Z,64.75
2023-02-11T06:36:02.717Z,64.80
2023-02-11T06:38:29.921Z,64.73
2023-02-11T06:40:57.374Z,64.87
2023-02-11T06:43:24.597Z,64.76
2023-02-11T06:45:56.139Z,64.72
2023-02-11T06:48:24.365Z,64.69
2023-02-11T06:50:51.990Z,64.56
2023-02-11T06:53:19.182Z,64.38
2023-02-11T06:55:46.729Z,64.34
2023-02-11T06:58:14.380Z,64.24
2023-02-11T07:00:41.339Z,64.18
2023-02-11T07:03:08.898Z,64.00
2023-02-11T07:05:38.305Z,63.95
2023-02-11T07:08:05.595Z,63.77
2023-02-11T07:10:34.298Z,63.68
2023-02-11T07:13:03.146Z,63.53
2023-02-11T07:15:30.782Z,63.36
2023-02-11T07:17:58.388Z,63.25
2023-02-11T07:20:26.858Z,63.17
2023-02-11T07:22:54.113Z,62.99
2023-02-11T07:25:21.504Z,62.87
2023-02-11T07:27:51.170Z,62.80
2023-02-11T07:30:18.785Z,62.72
2023-02-11T07:32:45.773Z,62.77
2023-02-11T07:35:13.097Z,62.59
2023-02-11T07:37:43.177Z,62.59
2023-02-11T07:40:10.959Z,62.50
2023-02-11T07:42:39.636Z,62.55
2023-02-11T07:45:06.995Z,62.50
2023-02-11T07:47:35.962Z,62.50
2023-02-11T07:50:03.638Z,62.57
2023-02-11T07:52:31.786Z,62.50
2023-02-11T07:54:58.748Z,62.43
2023-02-11T07:57:28.348Z,62.45
2023-02-11T07:59:55.478Z,62.50
2023-02-11T08:02:23.242Z,62.42
2023-02-11T08:04:50.871Z,62.34
2023-02-11T08:07:18.976Z,62.32
2023-02-11T08:09:46.624Z,62.16
2023-02-11T08:12:14.777Z,62.03
2023-02-11T08:14:41.793Z,61.87
2023-02-11T08:17:09.479Z,61.72
2023-02-11T08:19:37.199Z,61.54
2023-02-11T08:22:04.398Z,61.40
2023-02-11T08:24:32.104Z,61.28
2023-02-11T08:26:59.086Z,61.06
2023-02-11T08:29:28.486Z,60.99
2023-02-11T08:31:55.875Z,60.93
2023-02-11T08:34:23.048Z,60.80
2023-02-11T08:36:50.418Z,60.84
2023-02-11T08:39:20.971Z,60.98
2023-02-11T08:41:50.697Z,61.09
2023-02-11T08:44:20.020Z,61.16
2023-02-11T08:46:47.498Z,61.19
2023-02-11T08:49:15.481Z,61.29
2023-02-11T08:51:44.091Z,61.29
2023-02-11T08:54:12.095Z,61.26
2023-02-11T08:56:39.892Z,61.32
2023-02-11T08:59:22.120Z,61.37
2023-02-11T09:01:53.002Z,61.54
2023-02-11T09:04:29.079Z,61.53
2023-02-11T09:07:05.279Z,61.59
2023-02-11T09:09:53.800Z,61.55
2023-02-11T09:12:29.491Z,61.57
2023-02-11T09:15:11.227Z,61.62
2023-02-11T09:17:50.861Z,61.64
2023-02-11T09:20:50.736Z,61.67
2023-02-11T09:23:36.465Z,61.61
2023-02-11T09:26:21.496Z,61.56
2023-02-11T09:29:06.925Z,61.50
2023-02-11T09:31:37.252Z,61.44
2023-02-11T09:34:42.968Z,61.34
2023-02-11T09:37:22.703Z,61.31
2023-02-11T09:40:09.237Z,61.14
2023-02-11T09:42:45.837Z,61.10
2023-02-11T09:45:21.165Z,60.99
2023-02-11T09:47:57.680Z,60.86
2023-02-11T09:50:44.884Z,60.88
2023-02-11T09:53:22.422Z,60.84
2023-02-11T09:55:56.263Z,60.76
2023-02-11T09:58:27.949Z,60.76
2023-02-11T10:01:10.892Z,60.75
2023-02-11T10:03:48.641Z,60.72
2023-02-11T10:06:41.589Z,60.67
2023-02-11T10:09:20.799Z,60.71
2023-02-11T10:12:17.764Z,60.70
2023-02-11T10:14:54.464Z,60.77
2023-02-11T10:17:59.632Z,60.74
2023-02-11T10:21:07.118Z,60.65
2023-02-11T10:23:38.237Z,60.56
2023-02-11T10:26:15.485Z,60.46
2023-02-11T10:28:49.525Z,60.31
2023-02-11T10:31:34.766Z,60.22
2023-02-11T10:34:07.682Z,60.11
2023-02-11T10:36:38.312Z,60.04
2023-02-11T10:39:21.299Z,59.90
2023-02-11T10:41:59.083Z,59.73
2023-02-11T10:45:01.660Z,59.53
2023-02-11T10:47:34.675Z,59.43
2023-02-11T10:50:17.119Z,59.42
2023-02-11T10:52:44.125Z,59.37
2023-02-11T10:55:18.175Z,59.25
2023-02-11T10:58:01.364Z,59.13
2023-02-11T11:00:37.095Z,58.98
2023-02-11T11:03:17.413Z,58.90
2023-02-11T11:05:49.600Z,58.88
2023-02-11T11:08:18.811Z,58.94
2023-02-11T11:10:50.323Z,58.95
2023-02-11T11:13:26.576Z,58.92
2023-02-11T11:16:12.949Z,58.79
2023-02-11T11:18:52.252Z,58.79
2023-02-11T11:21:22.464Z,58.73
2023-02-11T11:23:57.303Z,58.72
2023-02-11T11:26:28.473Z,58.73
2023-02-11T11:29:07.978Z,58.69
2023-02-11T11:31:49.885Z,58.66
2023-02-11T11:34:29.303Z,58.60
2023-02-11T11:36:58.747Z,58.60
2023-02-11T11:39:31.320Z,58.58
2023-02-11T11:42:00.911Z,58.53
2023-02-11T11:44:36.581Z,58.54
2023-02-11T11:47:18.680Z,58.43
2023-02-11T11:49:52.663Z,58.37
2023-02-11T11:52:41.435Z,58.29
2023-02-11T11:55:20.661Z,58.33
2023-02-11T11:57:49.908Z,58.32
2023-02-11T12:00:39.273Z,58.41
2023-02-11T12:03:41.606Z,58.41
2023-02-11T12:06:32.648Z,58.47
2023-02-11T12:09:28.045Z,58.58
2023-02-11T12:12:32.829Z,58.61
2023-02-11T12:15:31.763Z,58.61
2023-02-11T12:18:17.556Z,58.62
2023-02-11T12:21:08.442Z,58.65
2023-02-11T12:23:41.542Z,58.68
2023-02-11T12:26:25.137Z,58.65
2023-02-11T12:29:07.537Z,58.70
2023-02-11T12:32:04.400Z,58.71
2023-02-11T12:34:41.371Z,58.77
2023-02-11T12:37:27.443Z,58.76
2023-02-11T12:40:07.402Z,58.74
2023-02-11T12:43:14.885Z,58.70
2023-02-11T12:46:02.094Z,58.67
2023-02-11T12:48:57.726Z,58.62
2023-02-11T12:52:01.595Z,58.70
2023-02-11T12:54:32.142Z,58.66
2023-02-11T12:57:12.569Z,58.75
2023-02-11T12:59:59.121Z,58.87
2023-02-11T13:02:35.452Z,58.88
2023-02-11T13:05:16.338Z,58.96
2023-02-11T13:07:46.880Z,59.07
2023-02-11T13:10:15.675Z,59.17
2023-02-11T13:13:09.864Z,59.28
2023-02-11T13:15:39.028Z,59.23
2023-02-11T13:18:45.995Z,59.24
2023-02-11T13:21:16.853Z,59.17
2023-02-11T13:24:03.315Z,58.99
2023-02-11T13:26:40.023Z,58.86
2023-02-11T13:29:19.598Z,58.71
2023-02-11T13:32:06.261Z,58.69
2023-02-11T13:34:43.252Z,58.69
2023-02-11T13:37:22.584Z,58.63
2023-02-11T13:40:26.832Z,58.62
2023-02-11T13:42:58.442Z,58.51
2023-02-11T13:45:48.405Z,58.33
2023-02-11T13:48:24.737Z,58.04
2023-02-11T13:50:59.824Z,57.96
2023-02-11T13:53:29.509Z,57.86
2023-02-11T13:56:10.287Z,57.85
2023-02-11T13:58:47.878Z,57.81
2023-02-11T14:01:41.413Z,57.83
2023-02-11T14:04:49.030Z,57.88
2023-02-11T14:07:51.645Z,57.68
2023-02-11T14:10:44.326Z,57.69
2023-02-11T14:13:35.101Z,57.62
2023-02-11T14:16:35.293Z,57.73
2023-02-11T14:19:06.904Z,57.81
2023-02-11T14:21:41.402Z,57.93
2023-02-11T14:24:13.458Z,58.03
2023-02-11T14:26:50.002Z,58.11
2023-02-11T14:29:18.801Z,58.22
2023-02-11T14:32:04.677Z,58.24
2023-02-11T14:34:48.825Z,58.21
2023-02-11T14:37:29.323Z,58.23
2023-02-11T14:40:24.002Z,58.25
2023-02-11T14:42:54.339Z,58.30
2023-02-11T14:45:29.629Z,58.37
2023-02-11T14:48:08.631Z,58.35
2023-02-11T14:50:44.417Z,58.36
2023-02-11T14:53:17.052Z,58.31
2023-02-11T14:55:48.873Z,58.43
2023-02-11T14:58:31.972Z,58.35
2023-02-11T15:01:21.850Z,58.38
2023-02-11T15:03:50.946Z,58.37
2023-02-11T15:06:25.796Z,58.34
2023-02-11T15:09:18.968Z,58.31
2023-02-11T15:11:51.382Z,58.31
2023-02-11T15:14:29.226Z,58.23
2023-02-11T15:17:01.663Z,58.04
2023-02-11T15:19:36.838Z,58.19
2023-02-11T15:22:21.763Z,58.32
2023-02-11T15:25:11.150Z,58.33
2023-02-11T15:27:48.421Z,58.47
2023-02-11T15:30:22.024Z,58.51
2023-02-11T15:33:06.162Z,58.55
2023-02-11T15:35:39.449Z,58.65
2023-02-11T15:38:08.571Z,58.75
2023-02-11T15:40:38.584Z,58.71
2023-02-11T15:43:10.228Z,58.59
2023-02-11T15:46:04.887Z,58.54
2023-02-11T15:48:42.642Z,58.63
2023-02-11T15:51:32.146Z,58.73
2023-02-11T15:54:03.597Z,58.73
2023-02-11T15:56:45.129Z,58.90
2023-02-11T15:59:22.023Z,58.96
2023-02-11T16:01:51.400Z,58.95
2023-02-11T16:04:22.822Z,58.94
2023-02-11T16:06:52.333Z,58.93
2023-02-11T16:09:24.164Z,58.96
2023-02-11T16:11:52.641Z,59.00
2023-02-11T16:14:24.113Z,58.97
2023-02-11T16:16:57.199Z,59.00
2023-02-11T16:19:28.208Z,59.07
2023-02-11T16:21:59.243Z,59.08
2023-02-11T16:24:33.360Z,59.09
2023-02-11T16:27:24.287Z,59.09
2023-02-11T16:29:54.822Z,59.12
2023-02-11T16:32:30.760Z,59.16
2023-02-11T16:35:01.855Z,59.17
2023-02-11T16:37:30.509Z,59.26
2023-02-11T16:39:59.430Z,59.36
2023-02-11T16:42:29.586Z,59.37
2023-02-11T16:44:58.215Z,59.44
2023-02-11T16:47:31.713Z,59.55
2023-02-11T16:50:01.783Z,59.59
2023-02-11T16:52:32.300Z,59.68
2023-02-11T16:55:00.495Z,59.71
2023-02-11T16:57:30.402Z,59.78
2023-02-11T16:59:59.995Z,59.65
2023-02-11T17:02:36.610Z,59.66
2023-02-11T17:05:07.987Z,59.48
2023-02-11T17:07:36.399Z,59.41
2023-02-11T17:10:07.568Z,59.24
2023-02-11T17:12:35.944Z,59.11
2023-02-11T17:15:07.472Z,58.99
2023-02-11T17:17:36.567Z,58.97
2023-02-11T17:20:06.628Z,58.96
2023-02-11T17:22:35.779Z,58.81
2023-02-11T17:25:08.873Z,58.82
2023-02-11T17:27:38.136Z,58.74
2023-02-11T17:30:07.481Z,58.63
2023-02-11T17:32:38.694Z,58.56
2023-02-11T17:35:08.299Z,58.56
2023-02-11T17:37:37.156Z,58.41
2023-02-11T17:40:08.849Z,58.30
2023-02-11T17:42:37.168Z,58.29
2023-02-11T17:45:05.959Z,58.42
2023-02-11T17:47:35.453Z,58.48
2023-02-11T17:50:05.176Z,58.42
2023-02-11T17:52:33.919Z,58.39
2023-02-11T17:55:02.732Z,58.30
2023-02-11T17:57:33.737Z,57.99
2023-02-11T18:00:02.925Z,58.12
2023-02-11T18:02:30.585Z,58.07
2023-02-11T18:05:00.608Z,58.03
2023-02-11T18:07:30.839Z,58.03
2023-02-11T18:09:59.469Z,58.10
2023-02-11T18:12:28.312Z,58.16
2023-02-11T18:14:58.395Z,58.22
2023-02-11T18:17:28.572Z,58.20
2023-02-11T18:19:58.939Z,58.17
2023-02-11T18:22:27.849Z,58.13
2023-02-11T18:24:57.742Z,58.24
2023-02-11T18:27:26.350Z,58.29
2023-02-11T18:29:55.559Z,58.21
2023-02-11T18:32:24.157Z,58.16
2023-02-11T18:34:54.184Z,58.13
2023-02-11T18:37:26.114Z,57.99
2023-02-11T18:39:54.685Z,58.12
2023-02-11T18:42:23.194Z,58.01
2023-02-11T18:44:52.167Z,58.13
2023-02-11T18:47:20.835Z,58.15
2023-02-11T18:49:53.441Z,57.97
2023-02-11T18:52:24.196Z,58.05
2023-02-11T18:54:54.860Z,57.96
2023-02-11T18:57:23.678Z,57.96
2023-02-11T18:59:53.393Z,57.79
2023-02-11T19:02:24.795Z,58.10
2023-02-11T19:04:55.178Z,58.18
2023-02-11T19:07:31.750Z,58.11
2023-02-11T19:10:00.305Z,58.22
2023-02-11T19:12:29.181Z,58.25
2023-02-11T19:15:00.026Z,58.30
2023-02-11T19:17:28.467Z,58.23
2023-02-11T19:19:57.581Z,58.24
2023-02-11T19:22:27.020Z,58.34
2023-02-11T19:24:55.639Z,58.41
2023-02-11T19:27:24.514Z,58.36
2023-02-11T19:29:53.412Z,58.37
2023-02-11T19:32:22.835Z,58.47
2023-02-11T19:34:55.072Z,58.48
2023-02-11T19:37:25.880Z,58.40
2023-02-11T19:39:54.929Z,58.56
2023-02-11T19:42:25.844Z,58.55
2023-02-11T19:44:56.782Z,58.58
2023-02-11T19:47:28.559Z,58.61
2023-02-11T19:49:56.871Z,58.76
2023-02-11T19:52:25.846Z,58.73
2023-02-11T19:54:56.290Z,58.68
2023-02-11T19:57:25.584Z,58.70
2023-02-11T19:59:55.548Z,58.72
2023-02-11T20:02:25.721Z,58.71
2023-02-11T20:04:54.444Z,58.71
2023-02-11T20:07:23.312Z,58.65
2023-02-11T20:09:54.578Z,58.66
2023-02-11T20:12:25.921Z,58.70
2023-02-11T20:14:54.229Z,58.63
2023-02-11T20:17:22.676Z,58.64
2023-02-11T20:19:52.138Z,58.66
2023-02-11T20:22:21.126Z,58.65
2023-02-11T20:24:49.424Z,58.66
2023-02-11T20:27:20.064Z,58.65
2023-02-11T20:29:48.872Z,58.66
2023-02-11T20:32:18.153Z,58.71
2023-02-11T20:34:48.693Z,58.67
2023-02-11T20:37:21.005Z,58.67
2023-02-11T20:39:49.426Z,58.70
2023-02-11T20:42:18.472Z,58.73
2023-02-11T20:44:47.552Z,58.77
2023-02-11T20:47:15.604Z,58.75
2023-02-11T20:49:43.293Z,58.74
2023-02-11T20:52:12.866Z,58.81
2023-02-11T20:54:41.583Z,58.77
2023-02-11T20:57:46.749Z,58.80
2023-02-11T21:00:18.951Z,58.79
2023-02-11T21:02:52.747Z,58.82
2023-02-11T21:05:23.852Z,58.83
2023-02-11T21:07:54.294Z,58.84
2023-02-11T21:10:24.817Z,58.90
2023-02-11T21:12:52.775Z,58.92
2023-02-11T21:15:25.058Z,58.87
2023-02-11T21:17:55.080Z,58.95
2023-02-11T21:20:24.155Z,58.93
2023-02-11T21:22:52.604Z,58.93
2023-02-11T21:25:23.485Z,58.98
2023-02-11T21:27:52.796Z,59.03
2023-02-11T21:30:21.396Z,58.97
2023-02-11T21:32:49.640Z,58.91
2023-02-11T21:35:18.694Z,58.99
2023-02-11T21:38:31.067Z,59.03
2023-02-11T21:41:04.669Z,59.03
2023-02-11T21:43:34.107Z,59.02
2023-02-11T21:46:08.309Z,59.06
2023-02-11T21:48:36.897Z,59.05
2023-02-11T21:51:09.511Z,58.99
2023-02-11T21:53:37.379Z,59.06
2023-02-11T21:56:09.197Z,59.07
2023-02-11T21:58:37.439Z,59.13
2023-02-11T22:01:17.442Z,59.20
2023-02-11T22:03:46.467Z,59.15
2023-02-11T22:06:18.157Z,59.11
2023-02-11T22:08:45.732Z,59.09
2023-02-11T22:11:14.350Z,59.14
2023-02-11T22:13:42.726Z,59.10
2023-02-11T22:16:13.730Z,59.10
2023-02-11T22:18:41.701Z,59.12
2023-02-11T22:21:15.523Z,59.15
2023-02-11T22:23:43.090Z,59.14
2023-02-11T22:26:18.098Z,59.22
2023-02-11T22:28:46.224Z,59.28
2023-02-11T22:31:16.475Z,59.25
2023-02-11T22:33:43.891Z,59.28
2023-02-11T22:36:17.175Z,59.17
2023-02-11T22:38:44.841Z,59.17
2023-02-11T22:41:12.863Z,59.07
2023-02-11T22:43:41.833Z,59.04
2023-02-11T22:46:11.255Z,59.00
2023-02-11T22:48:38.304Z,59.07
2023-02-11T22:51:15.194Z,58.97
2023-02-11T22:53:44.005Z,58.94
2023-02-11T22:56:15.630Z,58.92
2023-02-11T22:58:43.136Z,58.98
2023-02-11T23:01:10.345Z,59.00
2023-02-11T23:03:37.884Z,59.10
2023-02-11T23:06:08.142Z,59.23
2023-02-11T23:08:35.887Z,59.23
2023-02-11T23:11:13.131Z,59.25
2023-02-11T23:13:41.880Z,59.25
2023-02-11T23:16:12.303Z,59.23
2023-02-11T23:18:43.282Z,59.23
2023-02-11T23:21:13.578Z,59.29
2023-02-11T23:23:40.893Z,59.33
2023-02-11T23:26:17.203Z,59.41
2023-02-11T23:28:46.422Z,59.51
2023-02-11T23:31:23.833Z,59.62
2023-02-11T23:33:51.971Z,59.70
2023-02-11T23:36:20.671Z,59.68
2023-02-11T23:38:48.855Z,59.72
2023-02-11T23:41:16.959Z,59.56
2023-02-11T23:43:52.354Z,59.65
2023-02-11T23:46:22.100Z,59.72
2023-02-11T23:48:50.944Z,59.77
2023-02-11T23:51:18.652Z,59.90
2023-02-11T23:53:49.543Z,59.99
2023-02-11T23:56:19.658Z,60.06
2023-02-11T23:58:51.990Z,60.09
